Soul City, North Carolina
Current Conditions -  °F | °C
As of 9:35 AM on Monday 20 Oct 2014 (Local Time) from KHNZ Reporting Station
Clear Clear  
Wind Chill: 52°   Ceiling: Unl
Heat Index: 52°   Visibility: 10mi
Dew Point: 44°   Wind: 10mph
Humidity: 73%   Direction: 200°SSW
Pressure: 30.17"   Gusts: NA
Location:  36.4679°N, 78.2938°W
Report Text: KHNZ 201335Z AUTO 20009KT 10SM CLR 11/06 A3017 RMK AO2 T01110064
Loading
Personal Weather Stations






























Interactive Weather Map
Tropical Storm Tracking
New forecast layout! Learn more

10-Day Weather Forecast

Advertisements
Track Severe Weather on mobile